Time;durP1;ratioP1;P1;durP2;ratioP2;P2;SDS_P1;SDS_P2;PMS_P1;PMS_P2;Temp;Humidity;BMP_temperature;BMP_pressure;BME280_temperature;BME280_humidity;BME280_pressure;Samples;Min_cycle;Max_cycle;Signal;HPM_P1;HPM_P2
2022/12/11 00:00:51;;;;;;;27.02;17.35;;;0.50;99.90;;;;;;5093849;28;20390;-79
2022/12/11 00:03:17;;;;;;;26.48;17.40;;;0.50;99.90;;;;;;5094480;28;20079;-80
2022/12/11 00:05:44;;;;;;;28.90;16.48;;;0.50;99.90;;;;;;5110409;28;20028;-81
2022/12/11 00:08:11;;;;;;;29.33;18.20;;;0.50;99.90;;;;;;5094181;28;20051;-80
2022/12/11 00:10:37;;;;;;;27.77;18.27;;;0.50;99.90;;;;;;5093515;28;20062;-81
2022/12/11 00:13:03;;;;;;;26.30;16.63;;;0.50;99.90;;;;;;5093658;28;20421;-81
2022/12/11 00:15:30;;;;;;;28.00;17.95;;;0.50;99.90;;;;;;5092814;28;20048;-82
2022/12/11 00:17:56;;;;;;;23.23;14.85;;;0.50;99.90;;;;;;5094142;28;20547;-82
2022/12/11 00:20:22;;;;;;;30.55;16.17;;;0.50;99.90;;;;;;5101807;28;20036;-81
2022/12/11 00:22:48;;;;;;;31.95;20.23;;;0.50;99.90;;;;;;5096716;28;20098;-83
2022/12/11 00:25:14;;;;;;;27.80;16.60;;;0.50;99.90;;;;;;5096032;28;20055;-82
2022/12/11 00:27:40;;;;;;;27.08;17.63;;;0.50;99.90;;;;;;5095179;28;20392;-81
2022/12/11 00:30:06;;;;;;;34.72;19.80;;;0.50;99.90;;;;;;5077028;28;20393;-84
2022/12/11 00:32:33;;;;;;;36.42;18.75;;;0.50;99.90;;;;;;5094814;28;20105;-82
2022/12/11 00:34:58;;;;;;;36.65;18.33;;;0.50;99.90;;;;;;5095964;28;20020;-86
2022/12/11 00:37:24;;;;;;;29.13;16.40;;;0.50;99.90;;;;;;5115220;28;20011;-83
2022/12/11 00:39:50;;;;;;;32.13;17.02;;;0.50;99.90;;;;;;5103810;28;20036;-84
2022/12/11 00:42:16;;;;;;;23.83;17.20;;;0.50;99.90;;;;;;5095384;28;20012;-83
2022/12/11 00:44:42;;;;;;;33.60;20.17;;;0.50;99.90;;;;;;5076057;28;20085;-83
2022/12/11 00:47:08;;;;;;;27.38;18.45;;;0.50;99.90;;;;;;5091862;28;20024;-85
2022/12/11 00:49:33;;;;;;;29.17;17.25;;;0.50;99.90;;;;;;5074890;28;20550;-86
2022/12/11 00:51:59;;;;;;;31.90;17.05;;;0.50;99.90;;;;;;5093236;28;20024;-83
2022/12/11 00:54:25;;;;;;;29.27;17.27;;;0.50;99.90;;;;;;5092821;28;20024;-82
2022/12/11 00:56:51;;;;;;;28.42;17.25;;;0.50;99.90;;;;;;5074817;28;20503;-83
2022/12/11 00:59:17;;;;;;;25.20;16.48;;;0.60;99.90;;;;;;5092665;28;20066;-84
2022/12/11 01:01:42;;;;;;;33.90;21.55;;;0.60;99.90;;;;;;5074623;28;20047;-80
2022/12/11 01:04:08;;;;;;;32.45;20.10;;;0.60;99.90;;;;;;5091263;28;20047;-82
2022/12/11 01:06:34;;;;;;;32.63;19.45;;;0.60;99.90;;;;;;5092684;28;20065;-81
2022/12/11 01:11:44;;;;;;;33.88;19.92;;;0.60;99.90;;;;;;5092433;28;20039;-81
2022/12/11 01:14:11;;;;;;;32.75;20.50;;;0.60;99.90;;;;;;5092711;28;20020;-82
2022/12/11 01:16:37;;;;;;;33.97;20.33;;;0.60;99.90;;;;;;5092585;28;20027;-82
2022/12/11 01:19:03;;;;;;;42.63;20.35;;;0.70;99.90;;;;;;5091701;28;20032;-81
2022/12/11 01:21:29;;;;;;;31.33;20.67;;;0.60;99.90;;;;;;5089794;28;20024;-82
2022/12/11 01:23:54;;;;;;;37.90;19.42;;;0.70;99.90;;;;;;5081841;28;20039;-81
2022/12/11 01:26:21;;;;;;;38.45;22.85;;;0.70;99.90;;;;;;5091472;28;20028;-81
2022/12/11 01:28:51;;;;;;;33.75;19.90;;;0.70;99.90;;;;;;5092020;28;20019;-81
2022/12/11 01:31:21;;;;;;;38.38;20.23;;;0.70;99.90;;;;;;5089761;28;20047;-82
2022/12/11 01:33:47;;;;;;;31.45;20.52;;;0.70;99.90;;;;;;5090371;28;20029;-81
2022/12/11 01:36:18;;;;;;;36.42;20.85;;;0.70;99.90;;;;;;5091990;28;20401;-81
2022/12/11 01:38:45;;;;;;;33.88;21.17;;;0.70;99.90;;;;;;5091874;28;20075;-85
2022/12/11 01:41:12;;;;;;;40.58;19.23;;;0.70;99.90;;;;;;5074145;28;20032;-83
2022/12/11 01:43:57;;;;;;;35.47;21.80;;;0.70;99.90;;;;;;5092967;28;20039;-83
2022/12/11 01:46:24;;;;;;;36.65;20.35;;;0.70;99.90;;;;;;5071978;28;20052;-83
2022/12/11 01:48:50;;;;;;;38.85;20.38;;;0.70;99.90;;;;;;5112645;28;20028;-80
2022/12/11 01:51:16;;;;;;;38.85;22.75;;;0.70;99.90;;;;;;5092202;28;20066;-82
2022/12/11 01:53:47;;;;;;;39.00;21.83;;;0.70;99.90;;;;;;5091755;28;20030;-82
2022/12/11 01:56:13;;;;;;;45.25;23.30;;;0.70;99.90;;;;;;5092059;28;20024;-82
2022/12/11 01:58:46;;;;;;;40.33;21.33;;;0.70;99.90;;;;;;5077999;28;20089;-83
2022/12/11 02:01:23;;;;;;;43.65;24.90;;;0.70;99.90;;;;;;5092010;28;20095;-82
2022/12/11 02:03:50;;;;;;;36.13;21.92;;;0.70;99.90;;;;;;5092344;28;20040;-82
2022/12/11 02:06:36;;;;;;;43.45;22.50;;;0.70;99.90;;;;;;5108743;28;20057;-82
2022/12/11 02:09:05;;;;;;;43.03;23.25;;;0.70;99.90;;;;;;5099754;28;20016;-82
2022/12/11 02:12:00;;;;;;;42.05;21.02;;;0.70;99.90;;;;;;5091908;28;20438;-83
2022/12/11 02:15:05;;;;;;;45.55;23.83;;;0.70;99.90;;;;;;5016977;28;20026;-82
2022/12/11 02:17:52;;;;;;;43.80;22.25;;;0.70;99.90;;;;;;5090700;28;20024;-81
2022/12/11 02:20:33;;;;;;;44.42;22.95;;;0.70;99.90;;;;;;5075762;28;20692;-82
2022/12/11 02:23:07;;;;;;;58.25;22.92;;;0.70;99.90;;;;;;5087767;28;20380;-81
2022/12/11 02:26:03;;;;;;;45.10;21.27;;;0.70;99.90;;;;;;5108477;28;20441;-81
2022/12/11 02:28:30;;;;;;;49.70;22.80;;;0.70;99.90;;;;;;5097556;28;20028;-82
2022/12/11 02:31:37;;;;;;;44.38;23.02;;;0.70;99.90;;;;;;5096181;28;20035;-82
2022/12/11 02:34:08;;;;;;;44.63;20.95;;;0.70;99.90;;;;;;5102168;28;20047;-80
2022/12/11 02:36:39;;;;;;;48.10;22.05;;;0.70;99.90;;;;;;5096717;28;20024;-82
2022/12/11 02:39:09;;;;;;;48.30;24.73;;;0.70;99.90;;;;;;5095971;28;20036;-83
2022/12/11 02:41:36;;;;;;;45.67;23.35;;;0.70;99.90;;;;;;5095528;28;20028;-83
2022/12/11 02:44:04;;;;;;;56.33;27.80;;;0.70;99.90;;;;;;5095200;28;20404;-82
2022/12/11 02:46:32;;;;;;;57.78;23.55;;;0.70;99.90;;;;;;5090075;28;20131;-83
2022/12/11 02:48:58;;;;;;;55.22;21.98;;;0.70;99.90;;;;;;5095306;28;20030;-82
2022/12/11 02:51:31;;;;;;;61.78;27.45;;;0.70;99.90;;;;;;5094608;28;20051;-83
2022/12/11 02:53:58;;;;;;;47.45;24.13;;;0.70;99.90;;;;;;5081331;28;20032;-83
2022/12/11 02:56:37;;;;;;;;;;;0.70;99.90;;;;;;5077336;28;20900;-82
2022/12/11 02:59:10;;;;;;;36.20;18.85;;;0.70;99.90;;;;;;5095093;28;19912;-83
2022/12/11 03:01:36;;;;;;;39.05;20.77;;;0.70;99.90;;;;;;5095018;28;20020;-83
2022/12/11 03:04:02;;;;;;;53.22;22.38;;;0.70;99.90;;;;;;5094801;28;20036;-84
2022/12/11 03:06:39;;;;;;;62.97;20.95;;;0.70;99.90;;;;;;5095413;28;20017;-84
2022/12/11 03:09:05;;;;;;;;;;;0.70;99.90;;;;;;5095603;28;20424;-84
2022/12/11 03:11:31;;;;;;;42.53;20.08;;;0.70;99.90;;;;;;5095363;28;20289;-85
2022/12/11 03:14:01;;;;;;;50.60;19.92;;;0.70;99.90;;;;;;5094833;28;20017;-85
2022/12/11 03:16:35;;;;;;;42.28;19.73;;;0.70;99.90;;;;;;5093425;28;20091;-86
2022/12/11 03:19:37;;;;;;;42.40;18.50;;;0.70;99.90;;;;;;5091677;28;20088;-85
2022/12/11 03:22:11;;;;;;;40.00;18.60;;;0.70;99.90;;;;;;5076735;28;20035;-86
2022/12/11 03:25:03;;;;;;;39.95;18.85;;;0.70;99.90;;;;;;5094806;28;20073;-87
2022/12/11 03:27:40;;;;;;;33.17;15.93;;;0.70;99.90;;;;;;5085300;28;20055;-87
2022/12/11 03:30:15;;;;;;;35.10;17.03;;;0.70;99.90;;;;;;5112567;28;20031;-86
2022/12/11 03:32:54;;;;;;;45.13;19.45;;;0.70;99.90;;;;;;5099983;28;20103;-87
2022/12/11 03:35:31;;;;;;;40.28;17.27;;;0.70;99.90;;;;;;5106467;28;20012;-86
2022/12/11 03:38:02;;;;;;;44.97;19.52;;;0.70;99.90;;;;;;5087014;28;20031;-86
2022/12/11 03:40:32;;;;;;;34.75;15.23;;;0.70;99.90;;;;;;5095995;28;20043;-86
2022/12/11 03:42:58;;;;;;;39.78;17.80;;;0.70;99.90;;;;;;5092432;28;20012;-88
2022/12/11 03:45:26;;;;;;;39.73;17.73;;;0.70;99.90;;;;;;5085299;28;20074;-86
2022/12/11 03:47:52;;;;;;;;;;;0.60;99.90;;;;;;5095977;28;20265;-86
2022/12/11 03:50:20;;;;;;;41.83;16.35;;;0.70;99.90;;;;;;5095156;28;20273;-85
2022/12/11 03:52:48;;;;;;;43.90;18.67;;;0.60;99.90;;;;;;5115124;28;20043;-89
2022/12/11 03:55:16;;;;;;;37.20;15.60;;;0.60;99.90;;;;;;5104322;28;20028;-89
2022/12/11 03:57:43;;;;;;;38.40;18.20;;;0.60;99.90;;;;;;5077089;28;20389;-88
2022/12/11 04:00:12;;;;;;;42.35;18.38;;;0.70;99.90;;;;;;5096701;28;20032;-87
2022/12/11 04:02:39;;;;;;;35.40;17.70;;;0.60;99.90;;;;;;5106264;28;20076;-87
2022/12/11 04:05:06;;;;;;;41.55;20.88;;;0.70;99.90;;;;;;5102891;28;20027;-88
2022/12/11 04:07:31;;;;;;;48.95;19.13;;;0.70;99.90;;;;;;5096991;28;20455;-88
2022/12/11 04:09:57;;;;;;;41.78;18.02;;;0.60;99.90;;;;;;5083271;28;20024;-88
2022/12/11 04:12:23;;;;;;;43.03;18.48;;;0.70;99.90;;;;;;5093706;28;20024;-89
2022/12/11 04:15:01;;;;;;;41.55;17.60;;;0.70;99.90;;;;;;5084870;28;20021;-88
2022/12/11 04:25:48;;;;;;;37.80;15.40;;;0.70;99.90;;;;;;5115688;28;20055;-88
2022/12/11 04:28:15;;;;;;;32.97;15.93;;;0.60;99.90;;;;;;5104544;28;20028;-87
2022/12/11 04:30:46;;;;;;;31.92;14.68;;;0.60;99.90;;;;;;5100621;28;20049;-87
2022/12/11 04:33:12;;;;;;;39.88;15.77;;;0.50;99.90;;;;;;5097127;28;20024;-88
2022/12/11 04:35:38;;;;;;;33.70;17.77;;;0.50;99.90;;;;;;5079390;28;20020;-94
2022/12/11 04:38:03;;;;;;;37.83;15.80;;;0.50;99.90;;;;;;5084881;28;20091;-94
2022/12/11 04:40:29;;;;;;;47.25;20.67;;;0.50;99.90;;;;;;5090562;28;20066;-87
2022/12/11 04:42:55;;;;;;;43.45;18.02;;;0.50;99.90;;;;;;5082841;28;20088;-87
2022/12/11 04:45:21;;;;;;;42.75;19.88;;;0.60;99.90;;;;;;5076053;28;20023;-86
2022/12/11 04:47:47;;;;;;;35.50;19.13;;;0.60;99.90;;;;;;5076961;28;20024;-87
2022/12/11 04:50:14;;;;;;;37.28;20.60;;;0.60;99.90;;;;;;5095214;28;20044;-88
2022/12/11 04:52:40;;;;;;;43.13;22.00;;;0.60;99.90;;;;;;5094457;28;20032;-88
2022/12/11 04:55:07;;;;;;;56.95;25.67;;;0.60;99.90;;;;;;5081249;28;20048;-87
2022/12/11 04:57:33;;;;;;;35.03;17.33;;;0.60;99.90;;;;;;5091686;28;20428;-87
2022/12/11 04:59:59;;;;;;;34.15;15.52;;;0.60;99.90;;;;;;5089940;28;20039;-87
2022/12/11 05:02:26;;;;;;;32.35;18.40;;;0.50;99.90;;;;;;5095450;28;20016;-87
2022/12/11 05:04:52;;;;;;;20.57;12.30;;;0.50;99.90;;;;;;5099476;28;20052;-91
2022/12/11 05:07:19;;;;;;;30.73;15.32;;;0.50;99.90;;;;;;5086660;28;20442;-93
2022/12/11 05:09:45;;;;;;;32.10;14.88;;;0.50;99.90;;;;;;5094045;28;20039;-92
2022/12/11 05:12:13;;;;;;;25.10;12.57;;;0.40;99.90;;;;;;5099271;28;20039;-92
2022/12/11 05:14:40;;;;;;;29.85;15.10;;;0.40;99.90;;;;;;5107051;28;20035;-92
2022/12/11 05:17:08;;;;;;;20.58;11.50;;;0.40;99.90;;;;;;5090257;28;20024;-93
2022/12/11 05:19:35;;;;;;;33.55;15.25;;;0.40;99.90;;;;;;5063444;28;20037;-94
2022/12/11 05:22:01;;;;;;;;;;;0.40;99.90;;;;;;5057685;28;20135;-94
2022/12/11 05:24:28;;;;;;;23.75;11.20;;;0.40;99.90;;;;;;5052106;28;19932;-93
2022/12/11 05:27:09;;;;;;;31.10;15.85;;;0.30;99.90;;;;;;5071742;28;20018;-88
2022/12/11 05:29:45;;;;;;;26.25;14.20;;;0.30;99.90;;;;;;5010376;28;20067;-93
2022/12/11 05:32:11;;;;;;;22.83;12.15;;;0.30;99.90;;;;;;5052319;28;20037;-93
2022/12/11 05:34:37;;;;;;;25.67;13.38;;;0.30;99.90;;;;;;5049932;28;20081;-94
2022/12/11 05:37:04;;;;;;;19.70;9.68;;;0.30;99.90;;;;;;5053653;28;20025;-93
2022/12/11 05:39:33;;;;;;;32.13;15.25;;;0.30;99.90;;;;;;5048710;28;20069;-95
2022/12/11 05:42:00;;;;;;;21.58;13.75;;;0.30;99.90;;;;;;5052373;28;20092;-94
2022/12/11 05:44:53;;;;;;;32.38;16.77;;;0.30;99.90;;;;;;5024649;28;20041;-93
2022/12/11 05:47:48;;;;;;;26.45;13.95;;;0.30;99.90;;;;;;4991007;28;20027;-95
2022/12/11 05:50:20;;;;;;;32.05;17.50;;;0.30;99.90;;;;;;5012998;28;20026;-93
2022/12/11 05:52:47;;;;;;;26.92;17.15;;;0.30;99.90;;;;;;5018746;28;20114;-95
2022/12/11 05:55:13;;;;;;;37.58;16.88;;;0.30;99.90;;;;;;5037953;28;20522;-94
2022/12/11 05:57:39;;;;;;;35.67;16.60;;;0.30;99.90;;;;;;5044191;28;20056;-92
2022/12/11 06:00:07;;;;;;;28.30;16.65;;;0.40;99.90;;;;;;5041640;28;20503;-93
2022/12/11 06:03:10;;;;;;;41.10;17.33;;;0.40;99.90;;;;;;5053577;28;20088;-95
2022/12/11 06:06:42;;;;;;;30.63;15.30;;;0.50;99.90;;;;;;5004295;28;20073;-94
2022/12/11 06:09:29;;;;;;;41.08;20.80;;;0.50;99.90;;;;;;5020026;28;20037;-94
2022/12/11 06:12:20;;;;;;;39.17;19.40;;;0.50;99.90;;;;;;5019551;28;20049;-95
2022/12/11 06:14:47;;;;;;;42.30;19.63;;;0.40;99.90;;;;;;4945360;28;20043;-95
2022/12/11 06:18:02;;;;;;;35.25;19.50;;;0.50;99.90;;;;;;4978323;28;20106;-91
2022/12/11 06:21:34;;;;;;;36.40;18.52;;;0.50;99.90;;;;;;4977379;28;20048;-88
2022/12/11 06:24:20;;;;;;;31.40;16.65;;;0.50;99.90;;;;;;5020765;28;20026;-86
2022/12/11 06:27:18;;;;;;;38.80;18.55;;;0.50;99.90;;;;;;4986489;28;20017;-83
2022/12/11 06:29:45;;;;;;;29.48;18.35;;;0.60;99.90;;;;;;5031945;28;20043;-95
2022/12/11 06:32:11;;;;;;;37.50;20.02;;;0.50;99.90;;;;;;4994348;28;20037;-94
2022/12/11 06:34:37;;;;;;;39.03;19.02;;;0.60;99.90;;;;;;5001057;28;20018;-92
2022/12/11 06:37:03;;;;;;;27.77;15.90;;;0.60;99.90;;;;;;4977117;28;20037;-90
2022/12/11 06:39:29;;;;;;;40.33;18.33;;;0.60;99.90;;;;;;4984440;28;20089;-91
2022/12/11 06:41:55;;;;;;;38.47;18.80;;;0.60;99.90;;;;;;5006225;28;20029;-94
2022/12/11 06:44:21;;;;;;;38.13;19.60;;;0.70;99.90;;;;;;5003157;28;20034;-92
2022/12/11 06:46:51;;;;;;;37.45;19.15;;;0.70;99.90;;;;;;5046419;28;20022;-93
2022/12/11 06:49:17;;;;;;;32.90;17.60;;;0.70;99.90;;;;;;5023866;28;20013;-90
2022/12/11 06:51:43;;;;;;;36.40;19.75;;;0.80;99.90;;;;;;5038820;28;20105;-92
2022/12/11 06:54:08;;;;;;;30.88;17.27;;;0.70;99.90;;;;;;5079207;28;20043;-93
2022/12/11 06:56:35;;;;;;;30.75;15.85;;;0.70;99.90;;;;;;5085863;28;20060;-93
2022/12/11 06:59:01;;;;;;;31.02;15.10;;;0.60;99.90;;;;;;5112228;28;20032;-93
2022/12/11 07:01:28;;;;;;;33.72;18.75;;;0.60;99.90;;;;;;5114822;28;20028;-93
2022/12/11 07:03:58;;;;;;;37.95;20.33;;;0.50;99.90;;;;;;5086927;28;20024;-93
2022/12/11 07:06:28;;;;;;;27.65;14.85;;;0.40;99.90;;;;;;5075722;28;20061;-92
2022/12/11 07:08:56;;;;;;;29.13;15.40;;;0.40;99.90;;;;;;5083980;28;20028;-92
2022/12/11 07:11:22;;;;;;;29.45;16.83;;;0.40;99.90;;;;;;5073463;28;20013;-92
2022/12/11 07:13:48;;;;;;;37.22;19.27;;;0.30;99.90;;;;;;5093869;28;20054;-93
2022/12/11 07:16:17;;;;;;;35.33;18.38;;;0.40;99.90;;;;;;5085339;28;20016;-94
2022/12/11 07:18:47;;;;;;;33.15;18.83;;;0.40;99.90;;;;;;5037418;28;20049;-92
2022/12/11 07:21:19;;;;;;;32.22;18.13;;;0.40;99.90;;;;;;5036433;28;20455;-92
2022/12/11 07:23:45;;;;;;;31.60;17.30;;;0.40;99.90;;;;;;5034797;28;20033;-90
2022/12/11 07:26:24;;;;;;;35.08;21.75;;;0.40;99.90;;;;;;5023662;28;20025;-95
2022/12/11 07:28:50;;;;;;;35.45;21.65;;;0.50;99.90;;;;;;5030218;28;20447;-93
2022/12/11 07:31:20;;;;;;;36.63;20.67;;;0.50;99.90;;;;;;5038064;28;20076;-94
2022/12/11 07:33:51;;;;;;;39.65;20.50;;;0.50;99.90;;;;;;5041524;28;20156;-95
2022/12/11 07:36:17;;;;;;;36.15;18.60;;;0.60;99.90;;;;;;5011856;28;20029;-90
2022/12/11 07:38:43;;;;;;;33.67;17.60;;;0.60;99.90;;;;;;5025328;28;20064;-93
2022/12/11 07:41:12;;;;;;;32.85;18.17;;;0.60;99.90;;;;;;5030451;28;20515;-92
2022/12/11 07:43:40;;;;;;;37.42;20.25;;;0.60;99.90;;;;;;5045219;28;20037;-94
2022/12/11 07:46:10;;;;;;;37.13;19.02;;;0.60;99.90;;;;;;5035287;28;20049;-91
2022/12/11 07:48:41;;;;;;;39.75;21.35;;;0.60;99.90;;;;;;5044411;28;20025;-94
2022/12/11 07:51:18;;;;;;;35.50;18.92;;;0.60;99.90;;;;;;5027485;28;20101;-93
2022/12/11 07:54:02;;;;;;;38.00;21.77;;;0.60;99.90;;;;;;5028220;28;20040;-93
2022/12/11 07:56:29;;;;;;;42.38;20.67;;;0.60;99.90;;;;;;5062254;28;20033;-93
2022/12/11 07:58:55;;;;;;;33.08;18.98;;;0.60;99.90;;;;;;5087915;28;20485;-93
2022/12/11 08:01:24;;;;;;;34.22;20.45;;;0.60;99.90;;;;;;5088532;28;20024;-93
2022/12/11 08:03:51;;;;;;;42.08;22.95;;;0.60;99.90;;;;;;5093254;28;20032;-93
2022/12/11 08:06:20;;;;;;;39.13;22.55;;;0.70;99.90;;;;;;5085644;28;20043;-93
2022/12/11 08:08:46;;;;;;;33.05;16.20;;;0.70;99.90;;;;;;5111720;28;20031;-93
2022/12/11 08:11:15;;;;;;;39.47;19.95;;;0.70;99.90;;;;;;5094191;28;20027;-93
2022/12/11 08:13:47;;;;;;;39.03;21.48;;;0.70;99.90;;;;;;5077163;28;20127;-95
2022/12/11 08:16:15;;;;;;;35.70;20.27;;;0.60;99.90;;;;;;5036237;28;20147;-91
2022/12/11 08:18:45;;;;;;;42.40;21.27;;;0.70;99.90;;;;;;5066784;28;20055;-94
2022/12/11 08:21:22;;;;;;;40.00;23.02;;;0.70;99.90;;;;;;5034924;28;20036;-95
2022/12/11 08:23:49;;;;;;;41.60;23.65;;;0.80;99.90;;;;;;5054213;28;20029;-91
2022/12/11 08:26:24;;;;;;;42.70;21.92;;;0.70;99.90;;;;;;5057728;28;20041;-93
2022/12/11 08:28:50;;;;;;;40.53;21.58;;;0.70;99.90;;;;;;5058061;28;20071;-88
2022/12/11 08:31:25;;;;;;;45.42;21.90;;;0.70;99.90;;;;;;5065807;28;20037;-90
2022/12/11 08:33:52;;;;;;;44.55;24.85;;;0.70;99.90;;;;;;5039346;28;20035;-89
2022/12/11 08:36:20;;;;;;;41.70;23.45;;;0.70;99.90;;;;;;5044065;28;20049;-92
2022/12/11 08:38:46;;;;;;;47.17;23.75;;;0.70;99.90;;;;;;5067445;28;20051;-90
2022/12/11 08:41:15;;;;;;;43.75;24.55;;;0.70;99.90;;;;;;5073607;28;20033;-91
2022/12/11 08:43:42;;;;;;;48.20;23.95;;;0.70;99.90;;;;;;5041404;28;20037;-92
2022/12/11 08:46:09;;;;;;;45.47;24.83;;;0.70;99.90;;;;;;5044568;28;20036;-89
2022/12/11 08:48:38;;;;;;;49.95;25.92;;;0.80;99.90;;;;;;5078890;28;20508;-90
2022/12/11 08:51:16;;;;;;;44.50;22.63;;;0.90;99.90;;;;;;5085212;28;20115;-88
2022/12/11 08:53:45;;;;;;;40.25;22.77;;;0.90;99.90;;;;;;5109282;28;20016;-86
2022/12/11 08:56:16;;;;;;;40.35;23.48;;;0.90;99.90;;;;;;5098719;28;20081;-90
2022/12/11 08:58:46;;;;;;;50.13;27.05;;;1.00;99.90;;;;;;5080804;28;20083;-91
2022/12/11 09:01:16;;;;;;;41.45;24.23;;;0.90;99.90;;;;;;5098756;28;20020;-89
2022/12/11 09:03:43;;;;;;;45.13;26.98;;;0.90;99.90;;;;;;5106794;28;20024;-89
2022/12/11 09:06:11;;;;;;;43.97;24.92;;;0.90;99.90;;;;;;5107443;28;20111;-89
2022/12/11 09:08:38;;;;;;;38.75;24.75;;;0.80;99.90;;;;;;5076593;28;20007;-90
2022/12/11 09:11:06;;;;;;;41.55;23.63;;;0.70;99.90;;;;;;5099748;28;20371;-89
2022/12/11 09:13:34;;;;;;;40.85;24.67;;;0.70;99.90;;;;;;5073340;28;20019;-89
2022/12/11 09:16:02;;;;;;;42.55;24.05;;;0.80;99.90;;;;;;5084169;28;20032;-90
2022/12/11 09:18:28;;;;;;;35.42;23.50;;;0.80;99.90;;;;;;5075492;28;20031;-91
2022/12/11 09:21:02;;;;;;;35.47;23.70;;;0.80;99.90;;;;;;5080102;28;20016;-89
2022/12/11 09:23:31;;;;;;;43.92;22.80;;;0.80;99.90;;;;;;5079806;28;20024;-90
2022/12/11 09:25:58;;;;;;;38.45;25.20;;;0.80;99.90;;;;;;5078369;28;20063;-89
2022/12/11 09:28:24;;;;;;;49.43;25.57;;;0.70;99.90;;;;;;5075752;28;20036;-87
2022/12/11 09:30:51;;;;;;;38.50;22.63;;;0.70;99.90;;;;;;5076984;28;20028;-88
2022/12/11 09:33:19;;;;;;;39.53;24.00;;;0.70;99.90;;;;;;5085756;28;20142;-92
2022/12/11 09:35:45;;;;;;;39.78;23.10;;;0.70;99.90;;;;;;5099482;28;20051;-93
2022/12/11 09:38:14;;;;;;;28.95;18.40;;;0.80;99.90;;;;;;5074774;28;20074;-93
2022/12/11 09:40:42;;;;;;;39.42;21.67;;;0.80;99.90;;;;;;5084771;28;20032;-93
2022/12/11 09:43:34;;;;;;;39.60;22.48;;;0.70;99.90;;;;;;5087051;28;20502;-92
2022/12/11 09:46:04;;;;;;;35.75;23.00;;;0.70;99.90;;;;;;5070614;28;20036;-90
2022/12/11 09:48:35;;;;;;;36.85;22.48;;;0.70;99.90;;;;;;5080936;28;20284;-94
2022/12/11 09:51:27;;;;;;;37.88;21.70;;;0.80;99.90;;;;;;5081164;28;20031;-94
2022/12/11 09:53:58;;;;;;;37.53;22.20;;;0.90;99.90;;;;;;5066668;28;20038;-90
2022/12/11 09:56:56;;;;;;;39.63;22.75;;;0.90;99.90;;;;;;5080923;28;20121;-90
2022/12/11 09:59:55;;;;;;;24.73;14.98;;;1.00;99.90;;;;;;5097971;28;20123;-92
2022/12/11 10:02:56;;;;;;;31.05;18.75;;;1.00;99.90;;;;;;5084025;28;20017;-92
2022/12/11 10:06:10;;;;;;;;;;;;;;;;;;;;;
2022/12/11 10:09:18;;;;;;;25.23;16.95;;;0.90;99.90;;;;;;5088984;28;20120;-93
2022/12/11 10:12:21;;;;;;;27.35;19.45;;;0.90;99.90;;;;;;5076345;28;20032;-93
2022/12/11 10:18:01;;;;;;;31.25;18.60;;;0.80;99.90;;;;;;5091098;28;20044;-91
2022/12/11 10:20:38;;;;;;;33.35;19.13;;;0.80;99.90;;;;;;5093818;28;20035;-91
2022/12/11 10:23:36;;;;;;;;;;;;;;;;;;;;;
2022/12/11 10:26:12;;;;;;;36.60;19.77;;;0.80;99.90;;;;;;5089552;28;20073;-93
2022/12/11 10:29:26;;;;;;;30.23;18.10;;;0.80;99.90;;;;;;5102844;28;20085;-92
2022/12/11 10:32:27;;;;;;;31.00;18.50;;;0.80;99.90;;;;;;5058446;28;20021;-94
2022/12/11 10:35:20;;;;;;;;;;;;;;;;;;;;;
2022/12/11 10:46:01;;;;;;;31.55;17.65;;;0.70;99.90;;;;;;4996976;28;20062;-90
2022/12/11 10:48:29;;;;;;;30.90;19.25;;;0.80;99.90;;;;;;4987668;28;20423;-90
2022/12/11 10:51:06;;;;;;;28.88;18.52;;;0.70;99.90;;;;;;4978324;28;20033;-92
2022/12/11 10:53:33;;;;;;;27.67;18.42;;;0.70;99.90;;;;;;4980846;28;20491;-89
2022/12/11 10:56:00;;;;;;;;;;;0.70;99.90;;;;;;5002834;28;20491;-88
2022/12/11 10:58:32;;;;;;;27.65;18.50;;;0.70;99.90;;;;;;4986341;28;19924;-89
2022/12/11 11:01:14;;;;;;;31.58;19.30;;;0.70;99.90;;;;;;4988048;28;20022;-89
2022/12/11 11:04:14;;;;;;;26.77;18.48;;;0.80;99.90;;;;;;4987356;28;20113;-87
2022/12/11 11:06:40;;;;;;;30.80;18.48;;;0.80;99.90;;;;;;4988429;28;20042;-89
2022/12/11 11:09:41;;;;;;;34.00;19.27;;;0.70;99.90;;;;;;4981750;28;20030;-88
2022/12/11 11:12:41;;;;;;;35.28;20.42;;;0.60;99.90;;;;;;4995555;28;20029;-86
2022/12/11 11:15:29;;;;;;;29.80;17.17;;;0.60;99.90;;;;;;4962387;28;20500;-86
2022/12/11 11:18:02;;;;;;;23.40;14.02;;;0.60;99.90;;;;;;4977077;28;20026;-88
2022/12/11 11:20:30;;;;;;;30.48;17.98;;;0.50;99.90;;;;;;4998037;28;20034;-89
2022/12/11 11:23:01;;;;;;;30.50;18.65;;;0.50;99.90;;;;;;4997668;28;20038;-91
2022/12/11 11:25:34;;;;;;;26.20;17.83;;;0.50;99.90;;;;;;4978404;28;20030;-82
2022/12/11 11:28:06;;;;;;;27.20;16.95;;;0.50;99.90;;;;;;4977670;28;20053;-80
2022/12/11 11:31:01;;;;;;;32.42;18.13;;;0.60;99.90;;;;;;4977182;28;20026;-83
2022/12/11 11:33:28;;;;;;;28.40;17.85;;;0.50;99.90;;;;;;4991429;28;20128;-81
2022/12/11 11:36:05;;;;;;;25.60;15.30;;;0.50;99.90;;;;;;4994915;28;20497;-82
2022/12/11 11:38:44;;;;;;;;;;;0.60;99.90;;;;;;4977168;28;20041;-83
2022/12/11 11:41:18;;;;;;;21.15;12.85;;;0.60;99.90;;;;;;5001848;28;19945;-88
2022/12/11 11:44:29;;;;;;;27.25;15.15;;;0.60;99.90;;;;;;5000053;28;20081;-85
2022/12/11 11:47:18;;;;;;;23.30;15.38;;;0.50;99.90;;;;;;4937751;28;20030;-83
2022/12/11 11:50:06;;;;;;;25.52;15.80;;;0.50;99.90;;;;;;4980989;28;20046;-84
2022/12/11 11:52:59;;;;;;;23.17;12.88;;;0.40;99.90;;;;;;4965080;28;20069;-81
2022/12/11 11:56:16;;;;;;;;;;;;;;;;;;;;;
2022/12/11 11:58:54;;;;;;;25.02;14.18;;;0.40;99.90;;;;;;4917242;29;20100;-82
2022/12/11 12:01:49;;;;;;;29.27;16.70;;;0.40;99.90;;;;;;4936664;28;20046;-84
2022/12/11 12:04:18;;;;;;;22.67;15.82;;;0.30;99.90;;;;;;4977479;28;20023;-85
2022/12/11 12:07:08;;;;;;;19.13;12.43;;;0.30;99.90;;;;;;4992635;28;20026;-82
2022/12/11 12:09:50;;;;;;;20.15;12.38;;;0.30;99.90;;;;;;4987606;28;20054;-85
2022/12/11 12:12:34;;;;;;;26.48;14.68;;;0.20;99.90;;;;;;4991190;28;20022;-84
2022/12/11 12:15:22;;;;;;;20.90;13.48;;;0.30;99.90;;;;;;4991495;28;20070;-82
2022/12/11 12:18:05;;;;;;;23.75;15.25;;;0.20;99.90;;;;;;4985119;28;20030;-82
2022/12/11 12:20:48;;;;;;;23.13;14.20;;;0.20;99.90;;;;;;4976276;28;20033;-84
2022/12/11 12:23:45;;;;;;;18.77;12.20;;;0.20;99.90;;;;;;4978665;28;20042;-83
2022/12/11 12:26:31;;;;;;;19.45;10.73;;;0.20;99.90;;;;;;4977083;28;20069;-84
2022/12/11 12:29:32;;;;;;;;;;;;;;;;;;;;;
2022/12/11 12:32:12;;;;;;;22.55;13.38;;;0.20;99.90;;;;;;5002142;28;20428;-84
2022/12/11 12:34:58;;;;;;;18.13;11.50;;;0.20;99.90;;;;;;4977132;28;20439;-82
2022/12/11 12:37:58;;;;;;;18.20;13.05;;;0.20;99.90;;;;;;4988070;28;20006;-83
2022/12/11 12:40:41;;;;;;;22.90;14.48;;;0.20;99.90;;;;;;4995282;28;20089;-83
2022/12/11 12:43:25;;;;;;;21.27;13.75;;;0.20;99.90;;;;;;4992466;28;20358;-84
2022/12/11 12:45:51;;;;;;;20.90;14.07;;;0.20;99.90;;;;;;4976573;28;20027;-84
2022/12/11 12:48:18;;;;;;;23.38;14.57;;;0.20;99.90;;;;;;4962425;28;20503;-81
2022/12/11 12:50:47;;;;;;;22.10;13.43;;;0.20;99.90;;;;;;4993934;28;20019;-82
2022/12/11 12:53:22;;;;;;;19.92;13.57;;;0.30;99.90;;;;;;4980018;28;20440;-83
2022/12/11 12:55:48;;;;;;;19.13;14.25;;;0.20;99.90;;;;;;4977624;28;20031;-83
2022/12/11 12:58:28;;;;;;;20.40;12.95;;;0.20;99.90;;;;;;4971052;28;20026;-82
2022/12/11 13:01:05;;;;;;;19.77;13.52;;;0.30;99.90;;;;;;4963938;28;20022;-83
2022/12/11 13:03:34;;;;;;;;;;;0.20;99.90;;;;;;4976329;28;20105;-83
2022/12/11 13:06:04;;;;;;;17.63;12.25;;;0.20;99.90;;;;;;4978110;28;19910;-83
2022/12/11 13:08:47;;;;;;;16.77;12.40;;;0.20;99.90;;;;;;4975762;28;20023;-82
2022/12/11 13:11:17;;;;;;;18.48;13.18;;;0.20;99.90;;;;;;4976015;28;20037;-83
2022/12/11 13:14:04;;;;;;;15.68;11.63;;;0.20;99.90;;;;;;4991735;28;20038;-84
2022/12/11 13:16:41;;;;;;;20.48;12.20;;;0.20;99.90;;;;;;4974402;28;20026;-81
2022/12/11 13:19:22;;;;;;;;;;;0.20;99.90;;;;;;4993670;28;20038;-82
2022/12/11 13:22:14;;;;;;;16.02;11.95;;;0.10;99.90;;;;;;4994154;28;19906;-82
2022/12/11 13:24:52;;;;;;;20.08;11.70;;;0.10;99.90;;;;;;4989200;28;20404;-82
2022/12/11 13:27:38;;;;;;;19.30;11.52;;;0.10;99.90;;;;;;4993204;28;20392;-82
2022/12/11 13:30:06;;;;;;;25.40;13.67;;;0.10;99.90;;;;;;4992401;28;20105;-82
2022/12/11 13:32:33;;;;;;;11.95;8.68;;;0.10;99.90;;;;;;4975242;28;20034;-82
2022/12/11 13:35:06;;;;;;;13.80;9.03;;;0.20;99.90;;;;;;4989330;28;20084;-85
2022/12/11 13:37:40;;;;;;;18.70;12.38;;;0.20;99.90;;;;;;4993424;28;20018;-85
2022/12/11 13:40:15;;;;;;;15.35;10.45;;;0.20;99.90;;;;;;4976072;28;20552;-85
2022/12/11 13:42:51;;;;;;;13.20;9.65;;;0.20;99.90;;;;;;4983646;28;20053;-83